sensor_id;sensor_type;location;lat;lon;timestamp;P1;durP1;ratioP1;P2;durP2;ratioP2
8777;SDS011;4425;50.872;4.712;2023-03-14T00:04:53;3.40;;;1.70;;
8777;SDS011;4425;50.872;4.712;2023-03-14T00:07:22;4.72;;;1.70;;
8777;SDS011;4425;50.872;4.712;2023-03-14T00:09:55;7.30;;;2.15;;
8777;SDS011;4425;50.872;4.712;2023-03-14T00:12:23;6.47;;;2.10;;
8777;SDS011;4425;50.872;4.712;2023-03-14T00:14:54;5.47;;;2.17;;
8777;SDS011;4425;50.872;4.712;2023-03-14T00:17:22;6.80;;;2.28;;
8777;SDS011;4425;50.872;4.712;2023-03-14T00:19:51;5.90;;;2.40;;
8777;SDS011;4425;50.872;4.712;2023-03-14T00:22:21;4.93;;;2.10;;
8777;SDS011;4425;50.872;4.712;2023-03-14T00:24:53;7.05;;;2.35;;
8777;SDS011;4425;50.872;4.712;2023-03-14T00:27:20;7.53;;;2.50;;
8777;SDS011;4425;50.872;4.712;2023-03-14T00:29:57;6.70;;;2.57;;
8777;SDS011;4425;50.872;4.712;2023-03-14T00:32:25;7.40;;;2.72;;
8777;SDS011;4425;50.872;4.712;2023-03-14T00:34:53;6.77;;;2.63;;
8777;SDS011;4425;50.872;4.712;2023-03-14T00:37:21;9.43;;;2.80;;
8777;SDS011;4425;50.872;4.712;2023-03-14T00:39:50;8.15;;;2.72;;
8777;SDS011;4425;50.872;4.712;2023-03-14T00:42:19;8.02;;;2.88;;
8777;SDS011;4425;50.872;4.712;2023-03-14T00:44:47;7.85;;;2.70;;
8777;SDS011;4425;50.872;4.712;2023-03-14T00:47:18;7.82;;;2.70;;
8777;SDS011;4425;50.872;4.712;2023-03-14T00:49:53;7.13;;;2.60;;
8777;SDS011;4425;50.872;4.712;2023-03-14T00:54:50;6.97;;;2.60;;
8777;SDS011;4425;50.872;4.712;2023-03-14T00:57:19;6.32;;;2.58;;
8777;SDS011;4425;50.872;4.712;2023-03-14T00:59:50;7.37;;;2.83;;
8777;SDS011;4425;50.872;4.712;2023-03-14T01:02:19;8.85;;;2.78;;
8777;SDS011;4425;50.872;4.712;2023-03-14T01:04:56;7.53;;;2.80;;
8777;SDS011;4425;50.872;4.712;2023-03-14T01:07:29;9.48;;;2.65;;
8777;SDS011;4425;50.872;4.712;2023-03-14T01:10:04;8.40;;;2.65;;
8777;SDS011;4425;50.872;4.712;2023-03-14T01:12:32;7.95;;;2.53;;
8777;SDS011;4425;50.872;4.712;2023-03-14T01:15:04;10.52;;;3.15;;
8777;SDS011;4425;50.872;4.712;2023-03-14T01:17:34;9.25;;;3.20;;
8777;SDS011;4425;50.872;4.712;2023-03-14T01:22:39;10.07;;;3.05;;
8777;SDS011;4425;50.872;4.712;2023-03-14T01:25:06;9.37;;;2.90;;
8777;SDS011;4425;50.872;4.712;2023-03-14T01:32:56;9.75;;;3.00;;
8777;SDS011;4425;50.872;4.712;2023-03-14T01:35:25;11.05;;;3.33;;
8777;SDS011;4425;50.872;4.712;2023-03-14T01:37:54;10.13;;;3.03;;
8777;SDS011;4425;50.872;4.712;2023-03-14T01:40:22;9.70;;;3.10;;
8777;SDS011;4425;50.872;4.712;2023-03-14T01:42:54;12.07;;;3.30;;
8777;SDS011;4425;50.872;4.712;2023-03-14T01:48:35;13.05;;;3.67;;
8777;SDS011;4425;50.872;4.712;2023-03-14T01:51:08;10.43;;;3.10;;
8777;SDS011;4425;50.872;4.712;2023-03-14T01:53:39;11.25;;;3.15;;
8777;SDS011;4425;50.872;4.712;2023-03-14T01:56:09;8.68;;;2.92;;
8777;SDS011;4425;50.872;4.712;2023-03-14T01:58:39;11.02;;;3.10;;
8777;SDS011;4425;50.872;4.712;2023-03-14T02:01:10;8.52;;;2.83;;
8777;SDS011;4425;50.872;4.712;2023-03-14T02:03:52;7.00;;;2.53;;
8777;SDS011;4425;50.872;4.712;2023-03-14T02:06:22;8.35;;;2.58;;
8777;SDS011;4425;50.872;4.712;2023-03-14T02:08:52;7.37;;;2.47;;
8777;SDS011;4425;50.872;4.712;2023-03-14T02:11:20;8.13;;;2.30;;
8777;SDS011;4425;50.872;4.712;2023-03-14T02:13:48;6.70;;;2.10;;
8777;SDS011;4425;50.872;4.712;2023-03-14T02:16:17;6.05;;;2.17;;
8777;SDS011;4425;50.872;4.712;2023-03-14T02:18:48;7.20;;;2.33;;
8777;SDS011;4425;50.872;4.712;2023-03-14T02:21:16;8.30;;;2.33;;
8777;SDS011;4425;50.872;4.712;2023-03-14T02:23:51;5.53;;;1.83;;
8777;SDS011;4425;50.872;4.712;2023-03-14T02:26:26;7.82;;;1.98;;
8777;SDS011;4425;50.872;4.712;2023-03-14T02:29:03;6.57;;;2.00;;
8777;SDS011;4425;50.872;4.712;2023-03-14T02:31:31;6.57;;;1.90;;
8777;SDS011;4425;50.872;4.712;2023-03-14T02:33:59;6.78;;;2.10;;
8777;SDS011;4425;50.872;4.712;2023-03-14T02:36:27;6.88;;;2.30;;
8777;SDS011;4425;50.872;4.712;2023-03-14T02:41:30;7.75;;;2.15;;
8777;SDS011;4425;50.872;4.712;2023-03-14T02:43:58;6.57;;;2.03;;
8777;SDS011;4425;50.872;4.712;2023-03-14T02:46:27;4.70;;;1.60;;
8777;SDS011;4425;50.872;4.712;2023-03-14T02:48:55;5.72;;;1.92;;
8777;SDS011;4425;50.872;4.712;2023-03-14T02:53:55;4.40;;;1.90;;
8777;SDS011;4425;50.872;4.712;2023-03-14T02:56:23;4.85;;;1.80;;
8777;SDS011;4425;50.872;4.712;2023-03-14T02:58:50;5.90;;;1.80;;
8777;SDS011;4425;50.872;4.712;2023-03-14T03:01:19;6.68;;;2.08;;
8777;SDS011;4425;50.872;4.712;2023-03-14T03:03:48;4.97;;;2.00;;
8777;SDS011;4425;50.872;4.712;2023-03-14T03:06:18;6.20;;;2.30;;
8777;SDS011;4425;50.872;4.712;2023-03-14T03:08:46;6.57;;;2.10;;
8777;SDS011;4425;50.872;4.712;2023-03-14T03:11:13;5.63;;;2.10;;
8777;SDS011;4425;50.872;4.712;2023-03-14T03:13:41;6.38;;;2.30;;
8777;SDS011;4425;50.872;4.712;2023-03-14T03:16:09;6.40;;;2.38;;
8777;SDS011;4425;50.872;4.712;2023-03-14T03:18:44;6.82;;;2.70;;
8777;SDS011;4425;50.872;4.712;2023-03-14T03:21:14;8.38;;;2.55;;
8777;SDS011;4425;50.872;4.712;2023-03-14T03:26:16;8.73;;;2.70;;
8777;SDS011;4425;50.872;4.712;2023-03-14T03:28:44;6.53;;;2.67;;
8777;SDS011;4425;50.872;4.712;2023-03-14T03:31:11;7.25;;;2.85;;
8777;SDS011;4425;50.872;4.712;2023-03-14T03:33:44;8.52;;;3.15;;
8777;SDS011;4425;50.872;4.712;2023-03-14T03:36:12;8.07;;;3.05;;
8777;SDS011;4425;50.872;4.712;2023-03-14T03:38:39;10.52;;;3.33;;
8777;SDS011;4425;50.872;4.712;2023-03-14T03:41:08;9.38;;;3.30;;
8777;SDS011;4425;50.872;4.712;2023-03-14T03:43:35;10.95;;;3.50;;
8777;SDS011;4425;50.872;4.712;2023-03-14T03:46:03;10.18;;;3.40;;
8777;SDS011;4425;50.872;4.712;2023-03-14T03:48:31;9.35;;;3.28;;
8777;SDS011;4425;50.872;4.712;2023-03-14T03:51:04;11.15;;;3.60;;
8777;SDS011;4425;50.872;4.712;2023-03-14T03:53:31;10.48;;;3.80;;
8777;SDS011;4425;50.872;4.712;2023-03-14T03:55:58;9.82;;;3.30;;
8777;SDS011;4425;50.872;4.712;2023-03-14T03:58:26;8.20;;;3.38;;
8777;SDS011;4425;50.872;4.712;2023-03-14T04:00:53;9.17;;;3.30;;
8777;SDS011;4425;50.872;4.712;2023-03-14T04:03:21;7.07;;;3.10;;
8777;SDS011;4425;50.872;4.712;2023-03-14T04:05:57;8.05;;;3.00;;
8777;SDS011;4425;50.872;4.712;2023-03-14T04:08:27;8.00;;;3.03;;
8777;SDS011;4425;50.872;4.712;2023-03-14T04:10:55;11.38;;;3.38;;
8777;SDS011;4425;50.872;4.712;2023-03-14T04:13:23;10.27;;;3.10;;
8777;SDS011;4425;50.872;4.712;2023-03-14T04:15:50;8.75;;;3.08;;
8777;SDS011;4425;50.872;4.712;2023-03-14T04:18:19;8.18;;;2.90;;
8777;SDS011;4425;50.872;4.712;2023-03-14T04:20:50;7.93;;;2.92;;
8777;SDS011;4425;50.872;4.712;2023-03-14T04:23:18;8.57;;;3.20;;
8777;SDS011;4425;50.872;4.712;2023-03-14T04:25:48;8.05;;;3.10;;
8777;SDS011;4425;50.872;4.712;2023-03-14T04:28:18;7.10;;;3.03;;
8777;SDS011;4425;50.872;4.712;2023-03-14T04:30:46;8.07;;;3.15;;
8777;SDS011;4425;50.872;4.712;2023-03-14T04:33:13;7.57;;;2.97;;
8777;SDS011;4425;50.872;4.712;2023-03-14T04:35:43;7.50;;;2.90;;
8777;SDS011;4425;50.872;4.712;2023-03-14T04:38:10;7.72;;;3.00;;
8777;SDS011;4425;50.872;4.712;2023-03-14T04:40:38;8.50;;;3.10;;
8777;SDS011;4425;50.872;4.712;2023-03-14T04:43:07;6.18;;;2.78;;
8777;SDS011;4425;50.872;4.712;2023-03-14T04:45:35;7.07;;;2.80;;
8777;SDS011;4425;50.872;4.712;2023-03-14T04:48:03;6.18;;;2.70;;
8777;SDS011;4425;50.872;4.712;2023-03-14T04:50:33;5.90;;;2.60;;
8777;SDS011;4425;50.872;4.712;2023-03-14T04:53:01;6.35;;;2.72;;
8777;SDS011;4425;50.872;4.712;2023-03-14T04:55:29;5.28;;;2.72;;
8777;SDS011;4425;50.872;4.712;2023-03-14T04:57:57;6.00;;;2.85;;
8777;SDS011;4425;50.872;4.712;2023-03-14T05:00:28;5.63;;;2.65;;
8777;SDS011;4425;50.872;4.712;2023-03-14T05:02:55;5.47;;;2.50;;
8777;SDS011;4425;50.872;4.712;2023-03-14T05:05:22;6.03;;;2.30;;
8777;SDS011;4425;50.872;4.712;2023-03-14T05:07:52;6.60;;;2.42;;
8777;SDS011;4425;50.872;4.712;2023-03-14T05:10:19;4.60;;;2.40;;
8777;SDS011;4425;50.872;4.712;2023-03-14T05:12:47;4.53;;;2.35;;
8777;SDS011;4425;50.872;4.712;2023-03-14T05:15:17;2.95;;;2.20;;
8777;SDS011;4425;50.872;4.712;2023-03-14T05:17:46;4.90;;;2.35;;
8777;SDS011;4425;50.872;4.712;2023-03-14T05:20:15;4.15;;;2.20;;
8777;SDS011;4425;50.872;4.712;2023-03-14T05:22:42;4.28;;;2.42;;
8777;SDS011;4425;50.872;4.712;2023-03-14T05:25:09;5.77;;;2.30;;
8777;SDS011;4425;50.872;4.712;2023-03-14T05:27:37;4.03;;;2.53;;
8777;SDS011;4425;50.872;4.712;2023-03-14T05:30:05;3.37;;;2.30;;
8777;SDS011;4425;50.872;4.712;2023-03-14T05:32:34;3.67;;;2.50;;
8777;SDS011;4425;50.872;4.712;2023-03-14T05:35:03;3.33;;;2.35;;
8777;SDS011;4425;50.872;4.712;2023-03-14T05:37:31;3.20;;;2.40;;
8777;SDS011;4425;50.872;4.712;2023-03-14T05:39:59;2.97;;;2.40;;
8777;SDS011;4425;50.872;4.712;2023-03-14T05:42:26;2.80;;;2.50;;
8777;SDS011;4425;50.872;4.712;2023-03-14T05:44:53;3.40;;;2.38;;
8777;SDS011;4425;50.872;4.712;2023-03-14T05:47:20;4.03;;;2.05;;
8777;SDS011;4425;50.872;4.712;2023-03-14T05:49:47;1.92;;;1.80;;
8777;SDS011;4425;50.872;4.712;2023-03-14T05:52:18;3.88;;;2.28;;
8777;SDS011;4425;50.872;4.712;2023-03-14T05:54:45;2.50;;;2.20;;
8777;SDS011;4425;50.872;4.712;2023-03-14T05:57:13;2.97;;;2.45;;
8777;SDS011;4425;50.872;4.712;2023-03-14T05:59:42;3.08;;;2.53;;
8777;SDS011;4425;50.872;4.712;2023-03-14T06:02:09;3.08;;;2.65;;
8777;SDS011;4425;50.872;4.712;2023-03-14T06:04:40;3.47;;;2.70;;
8777;SDS011;4425;50.872;4.712;2023-03-14T06:07:09;3.43;;;2.90;;
8777;SDS011;4425;50.872;4.712;2023-03-14T06:09:38;3.17;;;2.90;;
8777;SDS011;4425;50.872;4.712;2023-03-14T06:12:06;3.55;;;3.08;;
8777;SDS011;4425;50.872;4.712;2023-03-14T06:14:33;3.80;;;3.50;;
8777;SDS011;4425;50.872;4.712;2023-03-14T06:17:01;3.80;;;3.50;;
8777;SDS011;4425;50.872;4.712;2023-03-14T06:19:28;3.83;;;3.47;;
8777;SDS011;4425;50.872;4.712;2023-03-14T06:21:58;4.50;;;4.10;;
8777;SDS011;4425;50.872;4.712;2023-03-14T06:24:26;4.80;;;4.07;;
8777;SDS011;4425;50.872;4.712;2023-03-14T06:26:56;5.10;;;4.60;;
8777;SDS011;4425;50.872;4.712;2023-03-14T06:29:23;4.78;;;4.38;;
8777;SDS011;4425;50.872;4.712;2023-03-14T06:31:52;4.95;;;4.50;;
8777;SDS011;4425;50.872;4.712;2023-03-14T06:34:19;5.10;;;4.60;;
8777;SDS011;4425;50.872;4.712;2023-03-14T06:36:47;5.60;;;5.10;;
8777;SDS011;4425;50.872;4.712;2023-03-14T06:39:14;5.28;;;4.88;;
8777;SDS011;4425;50.872;4.712;2023-03-14T06:41:42;5.28;;;4.78;;
8777;SDS011;4425;50.872;4.712;2023-03-14T06:44:13;5.35;;;4.88;;
8777;SDS011;4425;50.872;4.712;2023-03-14T06:46:40;5.95;;;5.15;;
8777;SDS011;4425;50.872;4.712;2023-03-14T06:49:09;6.45;;;5.25;;
8777;SDS011;4425;50.872;4.712;2023-03-14T06:51:37;5.55;;;4.97;;
8777;SDS011;4425;50.872;4.712;2023-03-14T06:54:04;5.45;;;4.95;;
8777;SDS011;4425;50.872;4.712;2023-03-14T06:56:31;5.10;;;4.70;;
8777;SDS011;4425;50.872;4.712;2023-03-14T06:59:00;9.20;;;5.40;;
8777;SDS011;4425;50.872;4.712;2023-03-14T07:01:33;7.53;;;4.90;;
8777;SDS011;4425;50.872;4.712;2023-03-14T07:04:16;5.43;;;4.90;;
8777;SDS011;4425;50.872;4.712;2023-03-14T07:06:45;4.23;;;3.83;;
8777;SDS011;4425;50.872;4.712;2023-03-14T07:09:13;3.50;;;3.20;;
8777;SDS011;4425;50.872;4.712;2023-03-14T07:14:13;2.17;;;1.67;;
8777;SDS011;4425;50.872;4.712;2023-03-14T07:16:42;1.55;;;1.45;;
8777;SDS011;4425;50.872;4.712;2023-03-14T07:19:11;1.40;;;1.30;;
8777;SDS011;4425;50.872;4.712;2023-03-14T07:21:38;1.70;;;1.60;;
8777;SDS011;4425;50.872;4.712;2023-03-14T07:24:06;4.72;;;1.55;;
8777;SDS011;4425;50.872;4.712;2023-03-14T07:26:33;2.45;;;1.30;;
8777;SDS011;4425;50.872;4.712;2023-03-14T07:29:01;1.60;;;1.40;;
8777;SDS011;4425;50.872;4.712;2023-03-14T07:31:29;2.83;;;1.33;;
8777;SDS011;4425;50.872;4.712;2023-03-14T07:34:09;2.20;;;1.60;;
8777;SDS011;4425;50.872;4.712;2023-03-14T07:36:36;3.80;;;1.50;;
8777;SDS011;4425;50.872;4.712;2023-03-14T07:39:07;2.33;;;1.60;;
8777;SDS011;4425;50.872;4.712;2023-03-14T07:41:38;3.85;;;1.70;;
8777;SDS011;4425;50.872;4.712;2023-03-14T07:44:05;1.60;;;1.50;;
8777;SDS011;4425;50.872;4.712;2023-03-14T07:46:41;3.22;;;1.50;;
8777;SDS011;4425;50.872;4.712;2023-03-14T07:49:15;2.90;;;1.50;;
8777;SDS011;4425;50.872;4.712;2023-03-14T07:51:50;2.47;;;1.70;;
8777;SDS011;4425;50.872;4.712;2023-03-14T07:54:19;2.42;;;2.00;;
8777;SDS011;4425;50.872;4.712;2023-03-14T07:57:05;2.58;;;1.88;;
8777;SDS011;4425;50.872;4.712;2023-03-14T07:59:37;3.20;;;1.90;;
8777;SDS011;4425;50.872;4.712;2023-03-14T08:02:04;6.75;;;3.88;;
8777;SDS011;4425;50.872;4.712;2023-03-14T08:04:38;3.75;;;2.40;;
8777;SDS011;4425;50.872;4.712;2023-03-14T08:07:06;4.75;;;2.45;;
8777;SDS011;4425;50.872;4.712;2023-03-14T08:09:33;3.55;;;2.80;;
8777;SDS011;4425;50.872;4.712;2023-03-14T08:12:02;3.38;;;2.90;;
8777;SDS011;4425;50.872;4.712;2023-03-14T08:14:32;4.22;;;3.17;;
8777;SDS011;4425;50.872;4.712;2023-03-14T08:16:59;4.75;;;3.20;;
8777;SDS011;4425;50.872;4.712;2023-03-14T08:19:28;5.95;;;3.50;;
8777;SDS011;4425;50.872;4.712;2023-03-14T08:21:56;5.00;;;3.40;;
8777;SDS011;4425;50.872;4.712;2023-03-14T08:24:26;5.32;;;3.60;;
8777;SDS011;4425;50.872;4.712;2023-03-14T08:26:53;4.47;;;3.50;;
8777;SDS011;4425;50.872;4.712;2023-03-14T08:29:24;4.15;;;3.47;;
8777;SDS011;4425;50.872;4.712;2023-03-14T08:31:52;5.53;;;3.50;;
8777;SDS011;4425;50.872;4.712;2023-03-14T08:34:20;3.60;;;3.30;;
8777;SDS011;4425;50.872;4.712;2023-03-14T08:36:49;4.32;;;3.53;;
8777;SDS011;4425;50.872;4.712;2023-03-14T08:39:20;6.18;;;3.53;;
8777;SDS011;4425;50.872;4.712;2023-03-14T08:41:49;3.97;;;3.10;;
8777;SDS011;4425;50.872;4.712;2023-03-14T08:44:16;3.55;;;2.75;;
8777;SDS011;4425;50.872;4.712;2023-03-14T08:46:44;3.97;;;2.83;;
8777;SDS011;4425;50.872;4.712;2023-03-14T08:49:12;2.85;;;2.65;;
8777;SDS011;4425;50.872;4.712;2023-03-14T08:51:40;4.35;;;2.90;;
8777;SDS011;4425;50.872;4.712;2023-03-14T08:54:10;3.72;;;2.80;;
8777;SDS011;4425;50.872;4.712;2023-03-14T08:56:44;3.80;;;2.80;;
8777;SDS011;4425;50.872;4.712;2023-03-14T08:59:12;3.17;;;2.67;;
8777;SDS011;4425;50.872;4.712;2023-03-14T09:01:48;2.55;;;2.30;;
8777;SDS011;4425;50.872;4.712;2023-03-14T09:04:15;3.83;;;3.50;;
8777;SDS011;4425;50.872;4.712;2023-03-14T09:06:43;4.00;;;2.37;;
8777;SDS011;4425;50.872;4.712;2023-03-14T09:09:11;4.27;;;2.47;;
8777;SDS011;4425;50.872;4.712;2023-03-14T09:11:39;5.20;;;2.70;;
8777;SDS011;4425;50.872;4.712;2023-03-14T09:14:18;5.18;;;2.90;;
8777;SDS011;4425;50.872;4.712;2023-03-14T09:16:45;5.15;;;3.22;;
8777;SDS011;4425;50.872;4.712;2023-03-14T09:19:14;3.80;;;3.03;;
8777;SDS011;4425;50.872;4.712;2023-03-14T09:21:41;3.65;;;3.22;;
8777;SDS011;4425;50.872;4.712;2023-03-14T09:24:10;3.95;;;3.10;;
8777;SDS011;4425;50.872;4.712;2023-03-14T09:26:37;4.50;;;2.97;;
8777;SDS011;4425;50.872;4.712;2023-03-14T09:29:06;5.82;;;3.08;;
8777;SDS011;4425;50.872;4.712;2023-03-14T09:31:33;5.28;;;2.75;;
8777;SDS011;4425;50.872;4.712;2023-03-14T09:34:15;3.77;;;2.60;;
8777;SDS011;4425;50.872;4.712;2023-03-14T09:37:00;2.60;;;2.30;;
8777;SDS011;4425;50.872;4.712;2023-03-14T09:39:29;3.97;;;2.40;;
8777;SDS011;4425;50.872;4.712;2023-03-14T09:41:56;2.92;;;2.10;;
8777;SDS011;4425;50.872;4.712;2023-03-14T09:44:33;3.08;;;2.35;;
8777;SDS011;4425;50.872;4.712;2023-03-14T09:47:06;3.80;;;2.42;;
8777;SDS011;4425;50.872;4.712;2023-03-14T09:49:39;3.10;;;2.63;;
8777;SDS011;4425;50.872;4.712;2023-03-14T09:52:10;2.97;;;2.63;;
8777;SDS011;4425;50.872;4.712;2023-03-14T09:54:40;4.40;;;3.05;;
8777;SDS011;4425;50.872;4.712;2023-03-14T09:57:12;3.45;;;3.13;;
8777;SDS011;4425;50.872;4.712;2023-03-14T09:59:48;4.93;;;3.97;;
8777;SDS011;4425;50.872;4.712;2023-03-14T10:02:18;3.63;;;3.33;;
8777;SDS011;4425;50.872;4.712;2023-03-14T10:04:47;4.93;;;3.40;;
8777;SDS011;4425;50.872;4.712;2023-03-14T10:07:16;5.82;;;3.50;;
8777;SDS011;4425;50.872;4.712;2023-03-14T10:09:47;6.03;;;3.60;;
8777;SDS011;4425;50.872;4.712;2023-03-14T10:12:16;6.30;;;3.30;;
8777;SDS011;4425;50.872;4.712;2023-03-14T10:14:49;6.72;;;3.60;;
8777;SDS011;4425;50.872;4.712;2023-03-14T10:17:19;6.00;;;3.80;;
8777;SDS011;4425;50.872;4.712;2023-03-14T10:19:54;7.13;;;3.60;;
8777;SDS011;4425;50.872;4.712;2023-03-14T10:22:23;9.32;;;3.97;;
8777;SDS011;4425;50.872;4.712;2023-03-14T10:24:54;10.30;;;4.05;;
8777;SDS011;4425;50.872;4.712;2023-03-14T10:27:27;6.93;;;3.63;;
8777;SDS011;4425;50.872;4.712;2023-03-14T10:30:01;8.77;;;3.50;;
8777;SDS011;4425;50.872;4.712;2023-03-14T10:32:33;7.68;;;3.95;;
8777;SDS011;4425;50.872;4.712;2023-03-14T10:35:11;8.18;;;3.55;;
8777;SDS011;4425;50.872;4.712;2023-03-14T10:37:52;10.90;;;3.83;;
8777;SDS011;4425;50.872;4.712;2023-03-14T10:40:24;5.10;;;3.20;;
8777;SDS011;4425;50.872;4.712;2023-03-14T10:42:55;7.15;;;3.03;;
8777;SDS011;4425;50.872;4.712;2023-03-14T10:45:38;3.75;;;2.10;;
8777;SDS011;4425;50.872;4.712;2023-03-14T10:50:57;4.53;;;2.58;;
8777;SDS011;4425;50.872;4.712;2023-03-14T10:53:32;4.25;;;2.30;;
8777;SDS011;4425;50.872;4.712;2023-03-14T10:56:06;3.47;;;1.95;;
8777;SDS011;4425;50.872;4.712;2023-03-14T10:58:36;3.30;;;1.88;;
8777;SDS011;4425;50.872;4.712;2023-03-14T11:04:19;2.58;;;1.40;;
8777;SDS011;4425;50.872;4.712;2023-03-14T11:07:01;2.35;;;1.40;;
8777;SDS011;4425;50.872;4.712;2023-03-14T11:09:34;1.38;;;1.23;;
8777;SDS011;4425;50.872;4.712;2023-03-14T11:12:22;2.37;;;1.60;;
8777;SDS011;4425;50.872;4.712;2023-03-14T11:14:59;2.22;;;1.85;;
8777;SDS011;4425;50.872;4.712;2023-03-14T11:17:37;3.00;;;2.20;;
8777;SDS011;4425;50.872;4.712;2023-03-14T11:20:13;1.60;;;1.30;;
8777;SDS011;4425;50.872;4.712;2023-03-14T11:22:58;1.60;;;1.50;;
8777;SDS011;4425;50.872;4.712;2023-03-14T11:25:32;2.13;;;1.70;;
8777;SDS011;4425;50.872;4.712;2023-03-14T11:28:14;1.20;;;1.20;;
8777;SDS011;4425;50.872;4.712;2023-03-14T11:30:50;1.40;;;1.30;;
8777;SDS011;4425;50.872;4.712;2023-03-14T11:33:24;1.90;;;1.20;;
8777;SDS011;4425;50.872;4.712;2023-03-14T11:35:59;1.65;;;1.40;;
8777;SDS011;4425;50.872;4.712;2023-03-14T11:38:39;1.20;;;1.10;;
8777;SDS011;4425;50.872;4.712;2023-03-14T11:41:14;2.50;;;1.40;;
8777;SDS011;4425;50.872;4.712;2023-03-14T11:43:45;1.90;;;1.23;;
8777;SDS011;4425;50.872;4.712;2023-03-14T11:46:16;3.00;;;2.55;;
8777;SDS011;4425;50.872;4.712;2023-03-14T11:48:54;1.75;;;1.15;;
8777;SDS011;4425;50.872;4.712;2023-03-14T11:51:29;2.10;;;1.40;;
8777;SDS011;4425;50.872;4.712;2023-03-14T11:54:02;2.08;;;1.30;;
8777;SDS011;4425;50.872;4.712;2023-03-14T11:56:42;1.30;;;1.20;;
8777;SDS011;4425;50.872;4.712;2023-03-14T11:59:16;2.03;;;1.25;;
8777;SDS011;4425;50.872;4.712;2023-03-14T12:01:52;1.83;;;1.47;;
8777;SDS011;4425;50.872;4.712;2023-03-14T12:04:28;1.20;;;1.10;;
8777;SDS011;4425;50.872;4.712;2023-03-14T12:07:13;1.08;;;1.05;;
8777;SDS011;4425;50.872;4.712;2023-03-14T12:09:45;1.23;;;1.10;;
8777;SDS011;4425;50.872;4.712;2023-03-14T12:12:16;1.00;;;0.98;;
8777;SDS011;4425;50.872;4.712;2023-03-14T12:14:57;1.40;;;1.10;;
8777;SDS011;4425;50.872;4.712;2023-03-14T12:17:27;1.30;;;1.20;;
8777;SDS011;4425;50.872;4.712;2023-03-14T12:20:11;2.40;;;1.30;;
8777;SDS011;4425;50.872;4.712;2023-03-14T12:22:44;1.85;;;1.20;;
8777;SDS011;4425;50.872;4.712;2023-03-14T12:25:17;2.13;;;1.30;;
8777;SDS011;4425;50.872;4.712;2023-03-14T12:30:57;1.50;;;1.30;;
8777;SDS011;4425;50.872;4.712;2023-03-14T12:40:12;1.70;;;1.40;;
8777;SDS011;4425;50.872;4.712;2023-03-14T12:42:54;1.40;;;1.30;;
8777;SDS011;4425;50.872;4.712;2023-03-14T12:45:27;1.70;;;1.30;;
8777;SDS011;4425;50.872;4.712;2023-03-14T12:48:03;2.13;;;1.42;;
8777;SDS011;4425;50.872;4.712;2023-03-14T12:56:15;5.40;;;2.10;;
8777;SDS011;4425;50.872;4.712;2023-03-14T12:59:17;3.93;;;1.80;;
8777;SDS011;4425;50.872;4.712;2023-03-14T13:02:17;4.53;;;1.85;;
8777;SDS011;4425;50.872;4.712;2023-03-14T13:04:50;4.45;;;1.90;;
8777;SDS011;4425;50.872;4.712;2023-03-14T13:07:31;3.88;;;1.95;;
8777;SDS011;4425;50.872;4.712;2023-03-14T13:13:04;2.83;;;1.73;;
8777;SDS011;4425;50.872;4.712;2023-03-14T13:15:44;2.88;;;1.95;;
8777;SDS011;4425;50.872;4.712;2023-03-14T13:18:14;2.78;;;1.52;;
8777;SDS011;4425;50.872;4.712;2023-03-14T13:20:44;3.40;;;1.90;;
8777;SDS011;4425;50.872;4.712;2023-03-14T13:23:22;2.72;;;1.60;;
8777;SDS011;4425;50.872;4.712;2023-03-14T13:25:52;2.05;;;1.80;;
8777;SDS011;4425;50.872;4.712;2023-03-14T13:28:24;2.80;;;1.80;;
8777;SDS011;4425;50.872;4.712;2023-03-14T13:30:54;2.05;;;1.80;;
8777;SDS011;4425;50.872;4.712;2023-03-14T13:33:24;3.35;;;1.90;;
8777;SDS011;4425;50.872;4.712;2023-03-14T13:35:54;4.93;;;2.22;;
8777;SDS011;4425;50.872;4.712;2023-03-14T13:38:26;5.05;;;2.75;;
8777;SDS011;4425;50.872;4.712;2023-03-14T13:40:59;5.03;;;2.15;;
8777;SDS011;4425;50.872;4.712;2023-03-14T13:46:03;9.35;;;2.95;;
8777;SDS011;4425;50.872;4.712;2023-03-14T13:48:32;7.03;;;2.15;;
8777;SDS011;4425;50.872;4.712;2023-03-14T13:51:10;8.38;;;2.42;;
8777;SDS011;4425;50.872;4.712;2023-03-14T13:53:43;12.52;;;3.10;;
8777;SDS011;4425;50.872;4.712;2023-03-14T13:56:15;10.07;;;3.17;;
8777;SDS011;4425;50.872;4.712;2023-03-14T14:01:51;12.68;;;3.25;;
8777;SDS011;4425;50.872;4.712;2023-03-14T14:04:19;14.70;;;3.40;;
8777;SDS011;4425;50.872;4.712;2023-03-14T14:06:52;14.65;;;3.80;;
8777;SDS011;4425;50.872;4.712;2023-03-14T14:09:25;9.70;;;3.30;;
8777;SDS011;4425;50.872;4.712;2023-03-14T14:12:13;14.13;;;3.30;;
8777;SDS011;4425;50.872;4.712;2023-03-14T14:14:49;11.73;;;3.33;;
8777;SDS011;4425;50.872;4.712;2023-03-14T14:17:20;11.75;;;3.80;;
8777;SDS011;4425;50.872;4.712;2023-03-14T14:22:54;14.15;;;3.78;;
8777;SDS011;4425;50.872;4.712;2023-03-14T14:25:36;15.05;;;4.45;;
8777;SDS011;4425;50.872;4.712;2023-03-14T14:28:15;11.25;;;3.53;;
8777;SDS011;4425;50.872;4.712;2023-03-14T14:31:04;13.45;;;3.60;;
8777;SDS011;4425;50.872;4.712;2023-03-14T14:33:45;13.68;;;3.90;;
8777;SDS011;4425;50.872;4.712;2023-03-14T14:38:54;12.32;;;3.47;;
8777;SDS011;4425;50.872;4.712;2023-03-14T14:41:28;13.37;;;3.90;;
8777;SDS011;4425;50.872;4.712;2023-03-14T14:43:58;12.23;;;3.35;;
8777;SDS011;4425;50.872;4.712;2023-03-14T14:46:30;12.27;;;3.60;;
8777;SDS011;4425;50.872;4.712;2023-03-14T14:49:04;11.20;;;3.45;;
8777;SDS011;4425;50.872;4.712;2023-03-14T14:51:38;11.13;;;3.40;;
8777;SDS011;4425;50.872;4.712;2023-03-14T14:54:11;8.13;;;3.10;;
8777;SDS011;4425;50.872;4.712;2023-03-14T14:56:39;10.52;;;3.03;;
8777;SDS011;4425;50.872;4.712;2023-03-14T14:59:18;15.63;;;4.32;;
8777;SDS011;4425;50.872;4.712;2023-03-14T15:01:49;13.20;;;3.58;;
8777;SDS011;4425;50.872;4.712;2023-03-14T15:04:23;8.13;;;2.30;;
8777;SDS011;4425;50.872;4.712;2023-03-14T15:06:51;8.60;;;2.22;;
8777;SDS011;4425;50.872;4.712;2023-03-14T15:09:25;8.30;;;2.17;;
8777;SDS011;4425;50.872;4.712;2023-03-14T15:11:58;6.10;;;2.35;;
8777;SDS011;4425;50.872;4.712;2023-03-14T15:14:25;7.65;;;2.30;;
8777;SDS011;4425;50.872;4.712;2023-03-14T15:16:57;9.32;;;2.38;;
8777;SDS011;4425;50.872;4.712;2023-03-14T15:19:25;4.07;;;1.73;;
8777;SDS011;4425;50.872;4.712;2023-03-14T15:21:57;3.80;;;2.10;;
8777;SDS011;4425;50.872;4.712;2023-03-14T15:24:39;4.32;;;1.80;;
8777;SDS011;4425;50.872;4.712;2023-03-14T15:27:11;4.75;;;2.10;;
8777;SDS011;4425;50.872;4.712;2023-03-14T15:29:42;5.60;;;1.80;;
8777;SDS011;4425;50.872;4.712;2023-03-14T15:32:15;6.25;;;1.67;;
8777;SDS011;4425;50.872;4.712;2023-03-14T15:34:43;5.88;;;2.20;;
8777;SDS011;4425;50.872;4.712;2023-03-14T15:37:11;6.22;;;1.90;;
8777;SDS011;4425;50.872;4.712;2023-03-14T15:39:41;4.38;;;1.88;;
8777;SDS011;4425;50.872;4.712;2023-03-14T15:42:09;3.85;;;1.70;;
8777;SDS011;4425;50.872;4.712;2023-03-14T15:44:38;4.27;;;1.87;;
8777;SDS011;4425;50.872;4.712;2023-03-14T15:47:05;5.55;;;2.10;;
8777;SDS011;4425;50.872;4.712;2023-03-14T15:49:36;5.40;;;2.10;;
8777;SDS011;4425;50.872;4.712;2023-03-14T15:52:04;6.72;;;2.22;;
8777;SDS011;4425;50.872;4.712;2023-03-14T15:54:34;5.93;;;1.73;;
8777;SDS011;4425;50.872;4.712;2023-03-14T15:57:02;4.00;;;1.90;;
8777;SDS011;4425;50.872;4.712;2023-03-14T15:59:32;3.42;;;2.00;;
8777;SDS011;4425;50.872;4.712;2023-03-14T16:02:00;4.55;;;2.05;;
8777;SDS011;4425;50.872;4.712;2023-03-14T16:04:29;5.72;;;2.03;;
8777;SDS011;4425;50.872;4.712;2023-03-14T16:07:11;5.20;;;1.80;;
8777;SDS011;4425;50.872;4.712;2023-03-14T16:09:43;3.80;;;1.80;;
8777;SDS011;4425;50.872;4.712;2023-03-14T16:12:17;4.05;;;1.70;;
8777;SDS011;4425;50.872;4.712;2023-03-14T16:14:47;4.40;;;2.05;;
8777;SDS011;4425;50.872;4.712;2023-03-14T16:17:14;7.50;;;2.47;;
8777;SDS011;4425;50.872;4.712;2023-03-14T16:19:43;3.25;;;2.05;;
8777;SDS011;4425;50.872;4.712;2023-03-14T16:22:13;7.70;;;2.30;;
8777;SDS011;4425;50.872;4.712;2023-03-14T16:24:41;7.93;;;2.33;;
8777;SDS011;4425;50.872;4.712;2023-03-14T16:27:09;6.87;;;2.57;;
8777;SDS011;4425;50.872;4.712;2023-03-14T16:29:37;7.47;;;2.72;;
8777;SDS011;4425;50.872;4.712;2023-03-14T16:32:04;11.88;;;3.20;;
8777;SDS011;4425;50.872;4.712;2023-03-14T16:34:33;9.98;;;3.15;;
8777;SDS011;4425;50.872;4.712;2023-03-14T16:37:14;9.82;;;3.30;;
8777;SDS011;4425;50.872;4.712;2023-03-14T16:42:29;14.23;;;3.25;;
8777;SDS011;4425;50.872;4.712;2023-03-14T16:44:56;14.75;;;3.90;;